sensor_id;sensor_type;location;lat;lon;timestamp;temperature;humidity
19966;DHT22;10144;50.874;4.762;2022-12-19T00:00:02;3.20;99.90
19966;DHT22;10144;50.874;4.762;2022-12-19T00:06:03;3.20;99.90
19966;DHT22;10144;50.874;4.762;2022-12-19T00:15:09;3.60;99.90
19966;DHT22;10144;50.874;4.762;2022-12-19T00:21:02;3.70;99.90
19966;DHT22;10144;50.874;4.762;2022-12-19T00:36:51;4.10;99.90
19966;DHT22;10144;50.874;4.762;2022-12-19T00:39:26;4.20;99.90
19966;DHT22;10144;50.874;4.762;2022-12-19T00:42:04;4.20;99.90
19966;DHT22;10144;50.874;4.762;2022-12-19T00:47:56;4.20;99.90
19966;DHT22;10144;50.874;4.762;2022-12-19T00:56:58;4.30;99.90
19966;DHT22;10144;50.874;4.762;2022-12-19T01:02:46;4.30;99.90
19966;DHT22;10144;50.874;4.762;2022-12-19T01:05:20;4.40;99.90
19966;DHT22;10144;50.874;4.762;2022-12-19T01:11:09;4.50;99.90
19966;DHT22;10144;50.874;4.762;2022-12-19T01:16:57;4.60;99.90
19966;DHT22;10144;50.874;4.762;2022-12-19T01:22:45;4.70;99.90
19966;DHT22;10144;50.874;4.762;2022-12-19T01:28:33;4.70;99.90
19966;DHT22;10144;50.874;4.762;2022-12-19T01:34:21;4.70;99.90
19966;DHT22;10144;50.874;4.762;2022-12-19T01:40:10;4.90;99.90
19966;DHT22;10144;50.874;4.762;2022-12-19T01:46:03;5.00;99.90
19966;DHT22;10144;50.874;4.762;2022-12-19T01:51:54;5.10;99.90
19966;DHT22;10144;50.874;4.762;2022-12-19T01:57:43;5.30;99.90
19966;DHT22;10144;50.874;4.762;2022-12-19T02:03:35;5.40;99.90
19966;DHT22;10144;50.874;4.762;2022-12-19T02:09:27;5.70;99.90
19966;DHT22;10144;50.874;4.762;2022-12-19T02:15:20;5.90;99.90
19966;DHT22;10144;50.874;4.762;2022-12-19T02:33:54;6.40;99.90
19966;DHT22;10144;50.874;4.762;2022-12-19T02:39:52;6.50;99.90
19966;DHT22;10144;50.874;4.762;2022-12-19T02:45:45;6.50;99.90
19966;DHT22;10144;50.874;4.762;2022-12-19T02:51:38;6.50;99.90
19966;DHT22;10144;50.874;4.762;2022-12-19T03:09:23;6.60;99.90
19966;DHT22;10144;50.874;4.762;2022-12-19T03:15:14;6.50;99.90
19966;DHT22;10144;50.874;4.762;2022-12-19T03:27:16;6.60;99.90
19966;DHT22;10144;50.874;4.762;2022-12-19T03:33:10;6.60;99.90
19966;DHT22;10144;50.874;4.762;2022-12-19T03:39:00;6.60;99.90
19966;DHT22;10144;50.874;4.762;2022-12-19T03:44:52;6.60;99.90
19966;DHT22;10144;50.874;4.762;2022-12-19T03:50:51;6.70;99.90
19966;DHT22;10144;50.874;4.762;2022-12-19T03:57:06;6.70;99.90
19966;DHT22;10144;50.874;4.762;2022-12-19T04:02:56;6.80;99.90
19966;DHT22;10144;50.874;4.762;2022-12-19T04:08:49;6.90;99.90
19966;DHT22;10144;50.874;4.762;2022-12-19T04:14:41;6.80;99.90
19966;DHT22;10144;50.874;4.762;2022-12-19T04:20:37;6.90;99.90
19966;DHT22;10144;50.874;4.762;2022-12-19T04:23:52;6.90;99.90
19966;DHT22;10144;50.874;4.762;2022-12-19T04:26:20;6.90;99.90
19966;DHT22;10144;50.874;4.762;2022-12-19T04:28:57;7.00;99.90
19966;DHT22;10144;50.874;4.762;2022-12-19T04:31:23;6.90;99.90
19966;DHT22;10144;50.874;4.762;2022-12-19T04:33:52;7.00;99.90
19966;DHT22;10144;50.874;4.762;2022-12-19T04:36:19;7.00;99.90
19966;DHT22;10144;50.874;4.762;2022-12-19T04:38:47;7.10;99.90
19966;DHT22;10144;50.874;4.762;2022-12-19T04:41:14;7.10;99.90
19966;DHT22;10144;50.874;4.762;2022-12-19T04:43:40;7.10;99.90
19966;DHT22;10144;50.874;4.762;2022-12-19T04:46:09;7.20;99.90
19966;DHT22;10144;50.874;4.762;2022-12-19T04:48:35;7.20;99.90
19966;DHT22;10144;50.874;4.762;2022-12-19T04:51:04;7.20;99.90
19966;DHT22;10144;50.874;4.762;2022-12-19T04:53:30;7.20;99.90
19966;DHT22;10144;50.874;4.762;2022-12-19T04:56:04;7.20;99.90
19966;DHT22;10144;50.874;4.762;2022-12-19T04:58:31;7.20;99.90
19966;DHT22;10144;50.874;4.762;2022-12-19T05:01:07;7.30;99.90
19966;DHT22;10144;50.874;4.762;2022-12-19T05:03:33;7.30;99.90
19966;DHT22;10144;50.874;4.762;2022-12-19T05:06:10;7.30;99.90
19966;DHT22;10144;50.874;4.762;2022-12-19T05:08:41;7.30;99.90
19966;DHT22;10144;50.874;4.762;2022-12-19T05:11:08;7.40;99.90
19966;DHT22;10144;50.874;4.762;2022-12-19T05:13:34;7.40;99.90
19966;DHT22;10144;50.874;4.762;2022-12-19T05:16:11;7.30;99.90
19966;DHT22;10144;50.874;4.762;2022-12-19T05:18:38;7.30;99.90
19966;DHT22;10144;50.874;4.762;2022-12-19T05:21:07;7.30;99.90
19966;DHT22;10144;50.874;4.762;2022-12-19T05:23:36;7.30;99.90
19966;DHT22;10144;50.874;4.762;2022-12-19T05:26:05;7.40;99.90
19966;DHT22;10144;50.874;4.762;2022-12-19T05:28:33;7.50;99.90
19966;DHT22;10144;50.874;4.762;2022-12-19T05:31:05;7.50;99.90
19966;DHT22;10144;50.874;4.762;2022-12-19T05:33:31;7.50;99.90
19966;DHT22;10144;50.874;4.762;2022-12-19T05:36:01;7.50;99.90
19966;DHT22;10144;50.874;4.762;2022-12-19T05:38:44;7.50;99.90
19966;DHT22;10144;50.874;4.762;2022-12-19T05:41:14;7.60;99.90
19966;DHT22;10144;50.874;4.762;2022-12-19T05:43:52;7.60;99.90
19966;DHT22;10144;50.874;4.762;2022-12-19T05:46:22;7.60;99.90
19966;DHT22;10144;50.874;4.762;2022-12-19T05:48:55;7.60;99.90
19966;DHT22;10144;50.874;4.762;2022-12-19T05:51:23;7.70;99.90
19966;DHT22;10144;50.874;4.762;2022-12-19T05:53:51;7.70;99.90
19966;DHT22;10144;50.874;4.762;2022-12-19T05:56:21;7.70;99.90
19966;DHT22;10144;50.874;4.762;2022-12-19T05:58:50;7.70;99.90
19966;DHT22;10144;50.874;4.762;2022-12-19T06:01:25;7.70;99.90
19966;DHT22;10144;50.874;4.762;2022-12-19T06:03:59;7.80;99.90
19966;DHT22;10144;50.874;4.762;2022-12-19T06:06:27;7.70;99.90
19966;DHT22;10144;50.874;4.762;2022-12-19T06:08:58;7.70;99.90
19966;DHT22;10144;50.874;4.762;2022-12-19T06:11:25;7.70;99.90
19966;DHT22;10144;50.874;4.762;2022-12-19T06:13:51;7.80;99.90
19966;DHT22;10144;50.874;4.762;2022-12-19T06:16:19;7.80;99.90
19966;DHT22;10144;50.874;4.762;2022-12-19T06:18:45;7.80;99.90
19966;DHT22;10144;50.874;4.762;2022-12-19T06:21:16;7.90;99.90
19966;DHT22;10144;50.874;4.762;2022-12-19T06:23:42;7.80;99.90
19966;DHT22;10144;50.874;4.762;2022-12-19T06:26:10;7.90;99.90
19966;DHT22;10144;50.874;4.762;2022-12-19T06:28:36;7.80;99.90
19966;DHT22;10144;50.874;4.762;2022-12-19T06:31:04;7.90;99.90
19966;DHT22;10144;50.874;4.762;2022-12-19T06:33:30;7.90;99.90
19966;DHT22;10144;50.874;4.762;2022-12-19T06:36:01;7.90;99.90
19966;DHT22;10144;50.874;4.762;2022-12-19T06:38:27;8.00;99.90
19966;DHT22;10144;50.874;4.762;2022-12-19T06:40:53;8.00;99.90
19966;DHT22;10144;50.874;4.762;2022-12-19T06:43:38;8.00;99.90
19966;DHT22;10144;50.874;4.762;2022-12-19T06:46:03;7.90;99.90
19966;DHT22;10144;50.874;4.762;2022-12-19T06:48:29;8.00;99.90
19966;DHT22;10144;50.874;4.762;2022-12-19T06:50:55;7.90;99.90
19966;DHT22;10144;50.874;4.762;2022-12-19T06:53:21;8.00;99.90
19966;DHT22;10144;50.874;4.762;2022-12-19T06:55:48;8.00;99.90
19966;DHT22;10144;50.874;4.762;2022-12-19T06:58:14;7.90;99.90
19966;DHT22;10144;50.874;4.762;2022-12-19T07:00:40;8.00;99.90
19966;DHT22;10144;50.874;4.762;2022-12-19T07:03:11;8.00;99.90
19966;DHT22;10144;50.874;4.762;2022-12-19T07:05:38;8.00;99.90
19966;DHT22;10144;50.874;4.762;2022-12-19T07:08:04;8.00;99.90
19966;DHT22;10144;50.874;4.762;2022-12-19T07:10:30;8.00;99.90
19966;DHT22;10144;50.874;4.762;2022-12-19T07:12:55;7.90;99.90
19966;DHT22;10144;50.874;4.762;2022-12-19T07:15:21;8.00;99.90
19966;DHT22;10144;50.874;4.762;2022-12-19T07:17:47;8.00;99.90
19966;DHT22;10144;50.874;4.762;2022-12-19T07:20:13;8.00;99.90
19966;DHT22;10144;50.874;4.762;2022-12-19T07:22:40;8.00;99.90
19966;DHT22;10144;50.874;4.762;2022-12-19T07:25:06;8.00;99.90
19966;DHT22;10144;50.874;4.762;2022-12-19T07:27:32;8.00;99.90
19966;DHT22;10144;50.874;4.762;2022-12-19T07:29:58;8.10;99.90
19966;DHT22;10144;50.874;4.762;2022-12-19T07:32:24;8.10;99.90
19966;DHT22;10144;50.874;4.762;2022-12-19T07:34:49;8.20;99.90
19966;DHT22;10144;50.874;4.762;2022-12-19T07:37:15;8.20;99.90
19966;DHT22;10144;50.874;4.762;2022-12-19T07:39:40;8.30;99.90
19966;DHT22;10144;50.874;4.762;2022-12-19T07:42:06;8.40;99.90
19966;DHT22;10144;50.874;4.762;2022-12-19T07:44:31;8.40;99.90
19966;DHT22;10144;50.874;4.762;2022-12-19T07:46:57;8.40;99.90
19966;DHT22;10144;50.874;4.762;2022-12-19T07:49:24;8.50;99.90
19966;DHT22;10144;50.874;4.762;2022-12-19T07:51:50;8.50;99.90
19966;DHT22;10144;50.874;4.762;2022-12-19T07:54:15;8.50;99.90
19966;DHT22;10144;50.874;4.762;2022-12-19T07:56:41;8.60;99.90
19966;DHT22;10144;50.874;4.762;2022-12-19T07:59:06;8.50;99.90
19966;DHT22;10144;50.874;4.762;2022-12-19T08:01:32;8.60;99.90
19966;DHT22;10144;50.874;4.762;2022-12-19T08:03:57;8.60;99.90
19966;DHT22;10144;50.874;4.762;2022-12-19T08:06:23;8.70;99.90
19966;DHT22;10144;50.874;4.762;2022-12-19T08:08:49;8.70;99.90
19966;DHT22;10144;50.874;4.762;2022-12-19T08:11:17;8.80;99.90
19966;DHT22;10144;50.874;4.762;2022-12-19T08:13:46;8.80;99.90
19966;DHT22;10144;50.874;4.762;2022-12-19T08:16:12;8.80;99.90
19966;DHT22;10144;50.874;4.762;2022-12-19T08:18:37;8.70;99.90
19966;DHT22;10144;50.874;4.762;2022-12-19T08:21:03;8.70;99.90
19966;DHT22;10144;50.874;4.762;2022-12-19T08:23:31;8.60;99.90
19966;DHT22;10144;50.874;4.762;2022-12-19T08:26:12;8.50;99.90
19966;DHT22;10144;50.874;4.762;2022-12-19T08:28:40;8.60;99.90
19966;DHT22;10144;50.874;4.762;2022-12-19T08:33:31;8.50;99.90
19966;DHT22;10144;50.874;4.762;2022-12-19T08:35:57;8.50;99.90
19966;DHT22;10144;50.874;4.762;2022-12-19T08:38:22;8.50;99.90
19966;DHT22;10144;50.874;4.762;2022-12-19T08:40:52;8.50;99.90
19966;DHT22;10144;50.874;4.762;2022-12-19T08:43:20;8.50;99.90
19966;DHT22;10144;50.874;4.762;2022-12-19T08:45:48;8.60;99.90
19966;DHT22;10144;50.874;4.762;2022-12-19T08:48:15;8.60;99.90
19966;DHT22;10144;50.874;4.762;2022-12-19T08:50:52;8.70;99.90
19966;DHT22;10144;50.874;4.762;2022-12-19T08:53:18;8.70;99.90
19966;DHT22;10144;50.874;4.762;2022-12-19T08:55:44;8.70;99.90
19966;DHT22;10144;50.874;4.762;2022-12-19T08:58:12;8.80;99.90
19966;DHT22;10144;50.874;4.762;2022-12-19T09:00:38;8.80;99.90
19966;DHT22;10144;50.874;4.762;2022-12-19T09:03:04;8.90;99.90
19966;DHT22;10144;50.874;4.762;2022-12-19T09:05:29;8.90;99.90
19966;DHT22;10144;50.874;4.762;2022-12-19T09:07:55;8.90;99.90
19966;DHT22;10144;50.874;4.762;2022-12-19T09:10:22;8.90;99.90
19966;DHT22;10144;50.874;4.762;2022-12-19T09:12:47;8.90;99.90
19966;DHT22;10144;50.874;4.762;2022-12-19T09:15:13;9.00;99.90
19966;DHT22;10144;50.874;4.762;2022-12-19T09:17:38;9.00;99.90
19966;DHT22;10144;50.874;4.762;2022-12-19T09:20:04;9.00;99.90
19966;DHT22;10144;50.874;4.762;2022-12-19T09:22:30;8.80;99.90
19966;DHT22;10144;50.874;4.762;2022-12-19T09:24:56;8.90;99.90
19966;DHT22;10144;50.874;4.762;2022-12-19T09:27:22;9.00;99.90
19966;DHT22;10144;50.874;4.762;2022-12-19T09:29:48;9.00;99.90
19966;DHT22;10144;50.874;4.762;2022-12-19T09:32:13;9.10;99.90
19966;DHT22;10144;50.874;4.762;2022-12-19T09:34:39;9.20;99.90
19966;DHT22;10144;50.874;4.762;2022-12-19T09:37:06;9.20;99.90
19966;DHT22;10144;50.874;4.762;2022-12-19T09:39:32;9.20;99.90
19966;DHT22;10144;50.874;4.762;2022-12-19T09:47:17;9.30;99.90
19966;DHT22;10144;50.874;4.762;2022-12-19T09:49:45;9.30;99.90
19966;DHT22;10144;50.874;4.762;2022-12-19T09:52:18;9.30;99.90
19966;DHT22;10144;50.874;4.762;2022-12-19T09:54:53;9.30;99.90
19966;DHT22;10144;50.874;4.762;2022-12-19T09:57:37;9.30;99.90
19966;DHT22;10144;50.874;4.762;2022-12-19T10:00:09;9.30;99.90
19966;DHT22;10144;50.874;4.762;2022-12-19T10:03:00;9.20;99.90
19966;DHT22;10144;50.874;4.762;2022-12-19T10:08:18;9.20;99.90
19966;DHT22;10144;50.874;4.762;2022-12-19T10:16:24;9.20;99.90
19966;DHT22;10144;50.874;4.762;2022-12-19T10:19:00;9.30;99.90
19966;DHT22;10144;50.874;4.762;2022-12-19T10:21:38;9.30;99.90
19966;DHT22;10144;50.874;4.762;2022-12-19T10:26:43;9.20;99.90
19966;DHT22;10144;50.874;4.762;2022-12-19T10:32:15;9.30;99.90
19966;DHT22;10144;50.874;4.762;2022-12-19T10:34:44;9.30;99.90
19966;DHT22;10144;50.874;4.762;2022-12-19T10:50:04;9.70;99.90
19966;DHT22;10144;50.874;4.762;2022-12-19T10:55:53;9.90;99.90
19966;DHT22;10144;50.874;4.762;2022-12-19T11:01:42;10.00;99.90
19966;DHT22;10144;50.874;4.762;2022-12-19T11:07:30;10.00;99.90
19966;DHT22;10144;50.874;4.762;2022-12-19T11:13:28;10.00;99.90
19966;DHT22;10144;50.874;4.762;2022-12-19T11:19:35;10.10;99.90
19966;DHT22;10144;50.874;4.762;2022-12-19T11:25:37;10.30;99.90
19966;DHT22;10144;50.874;4.762;2022-12-19T11:31:27;10.40;99.90
19966;DHT22;10144;50.874;4.762;2022-12-19T11:40:45;10.30;99.90
19966;DHT22;10144;50.874;4.762;2022-12-19T11:48:50;10.40;99.90
19966;DHT22;10144;50.874;4.762;2022-12-19T11:51:50;10.50;99.90
19966;DHT22;10144;50.874;4.762;2022-12-19T11:54:24;10.70;99.90
19966;DHT22;10144;50.874;4.762;2022-12-19T11:56:52;10.70;99.90
19966;DHT22;10144;50.874;4.762;2022-12-19T11:59:23;10.80;99.90
19966;DHT22;10144;50.874;4.762;2022-12-19T12:07:38;10.90;99.90
19966;DHT22;10144;50.874;4.762;2022-12-19T12:10:20;11.00;99.90
19966;DHT22;10144;50.874;4.762;2022-12-19T12:13:22;11.10;99.90
19966;DHT22;10144;50.874;4.762;2022-12-19T12:15:55;11.10;99.90
19966;DHT22;10144;50.874;4.762;2022-12-19T12:21:28;11.30;99.90
19966;DHT22;10144;50.874;4.762;2022-12-19T12:24:06;11.40;99.90
19966;DHT22;10144;50.874;4.762;2022-12-19T12:26:57;11.40;99.90
19966;DHT22;10144;50.874;4.762;2022-12-19T12:29:39;11.50;99.90
19966;DHT22;10144;50.874;4.762;2022-12-19T12:44:58;11.50;99.90
19966;DHT22;10144;50.874;4.762;2022-12-19T12:47:26;11.70;99.90
19966;DHT22;10144;50.874;4.762;2022-12-19T12:50:05;11.80;99.90
19966;DHT22;10144;50.874;4.762;2022-12-19T12:52:45;12.00;99.90
19966;DHT22;10144;50.874;4.762;2022-12-19T12:55:32;12.30;99.90
19966;DHT22;10144;50.874;4.762;2022-12-19T13:01:13;12.30;99.90
19966;DHT22;10144;50.874;4.762;2022-12-19T13:07:18;12.30;99.90
19966;DHT22;10144;50.874;4.762;2022-12-19T13:09:53;12.30;99.90
19966;DHT22;10144;50.874;4.762;2022-12-19T13:12:32;12.30;99.90
19966;DHT22;10144;50.874;4.762;2022-12-19T13:15:34;12.20;99.90
19966;DHT22;10144;50.874;4.762;2022-12-19T13:21:12;12.10;99.90
19966;DHT22;10144;50.874;4.762;2022-12-19T13:23:45;12.00;99.90
19966;DHT22;10144;50.874;4.762;2022-12-19T13:26:44;12.00;99.90
19966;DHT22;10144;50.874;4.762;2022-12-19T13:29:30;12.00;99.90
19966;DHT22;10144;50.874;4.762;2022-12-19T13:32:14;11.90;99.90
19966;DHT22;10144;50.874;4.762;2022-12-19T13:34:53;11.90;99.90
19966;DHT22;10144;50.874;4.762;2022-12-19T13:40:12;11.80;99.90
19966;DHT22;10144;50.874;4.762;2022-12-19T13:46:05;11.90;99.90
19966;DHT22;10144;50.874;4.762;2022-12-19T13:48:45;11.80;99.90
19966;DHT22;10144;50.874;4.762;2022-12-19T13:51:14;11.90;99.90
19966;DHT22;10144;50.874;4.762;2022-12-19T14:06:59;11.80;99.90
19966;DHT22;10144;50.874;4.762;2022-12-19T14:09:53;11.90;99.90
19966;DHT22;10144;50.874;4.762;2022-12-19T14:12:41;11.80;99.90
19966;DHT22;10144;50.874;4.762;2022-12-19T14:15:46;11.80;99.90
19966;DHT22;10144;50.874;4.762;2022-12-19T14:18:20;11.70;99.90
19966;DHT22;10144;50.874;4.762;2022-12-19T14:27:12;11.70;99.90
19966;DHT22;10144;50.874;4.762;2022-12-19T14:29:46;11.70;99.90
19966;DHT22;10144;50.874;4.762;2022-12-19T14:32:13;11.70;99.90
19966;DHT22;10144;50.874;4.762;2022-12-19T14:34:39;11.70;99.90
19966;DHT22;10144;50.874;4.762;2022-12-19T14:37:05;11.60;99.90
19966;DHT22;10144;50.874;4.762;2022-12-19T14:39:32;11.60;99.90
19966;DHT22;10144;50.874;4.762;2022-12-19T14:42:16;11.60;99.90
19966;DHT22;10144;50.874;4.762;2022-12-19T14:45:29;11.60;99.90
19966;DHT22;10144;50.874;4.762;2022-12-19T14:47:47;11.50;99.90
19966;DHT22;10144;50.874;4.762;2022-12-19T14:50:33;11.50;99.90
19966;DHT22;10144;50.874;4.762;2022-12-19T14:53:15;11.50;99.90
19966;DHT22;10144;50.874;4.762;2022-12-19T14:55:42;11.50;99.90
19966;DHT22;10144;50.874;4.762;2022-12-19T14:58:21;11.40;99.90
19966;DHT22;10144;50.874;4.762;2022-12-19T15:00:50;11.50;99.90
19966;DHT22;10144;50.874;4.762;2022-12-19T15:03:25;11.40;99.90
19966;DHT22;10144;50.874;4.762;2022-12-19T15:08:32;11.40;99.90
19966;DHT22;10144;50.874;4.762;2022-12-19T15:11:00;11.40;99.90
19966;DHT22;10144;50.874;4.762;2022-12-19T15:13:52;11.30;99.90
19966;DHT22;10144;50.874;4.762;2022-12-19T15:16:26;11.30;99.90
19966;DHT22;10144;50.874;4.762;2022-12-19T15:18:55;11.30;99.90
19966;DHT22;10144;50.874;4.762;2022-12-19T15:21:21;11.40;99.90
19966;DHT22;10144;50.874;4.762;2022-12-19T15:23:47;11.30;99.90
19966;DHT22;10144;50.874;4.762;2022-12-19T15:26:27;11.20;99.90
19966;DHT22;10144;50.874;4.762;2022-12-19T15:28:55;11.20;99.90
19966;DHT22;10144;50.874;4.762;2022-12-19T15:31:34;11.10;99.90
19966;DHT22;10144;50.874;4.762;2022-12-19T15:34:19;11.10;99.90
19966;DHT22;10144;50.874;4.762;2022-12-19T15:36:50;11.20;99.90
19966;DHT22;10144;50.874;4.762;2022-12-19T15:39:16;11.20;99.90
19966;DHT22;10144;50.874;4.762;2022-12-19T15:41:42;11.30;99.90
19966;DHT22;10144;50.874;4.762;2022-12-19T15:46:54;11.30;99.90
19966;DHT22;10144;50.874;4.762;2022-12-19T15:49:21;11.30;99.90
19966;DHT22;10144;50.874;4.762;2022-12-19T15:51:47;11.20;99.90
19966;DHT22;10144;50.874;4.762;2022-12-19T15:54:15;11.10;99.90
19966;DHT22;10144;50.874;4.762;2022-12-19T15:56:51;11.10;99.90
19966;DHT22;10144;50.874;4.762;2022-12-19T15:59:40;11.10;99.90
19966;DHT22;10144;50.874;4.762;2022-12-19T16:02:16;11.20;99.90
19966;DHT22;10144;50.874;4.762;2022-12-19T16:04:43;11.10;99.90
19966;DHT22;10144;50.874;4.762;2022-12-19T16:07:15;11.10;99.90
19966;DHT22;10144;50.874;4.762;2022-12-19T16:09:41;11.20;99.90
19966;DHT22;10144;50.874;4.762;2022-12-19T16:12:17;11.20;99.90
19966;DHT22;10144;50.874;4.762;2022-12-19T16:14:44;11.30;99.90
19966;DHT22;10144;50.874;4.762;2022-12-19T16:17:31;11.30;99.90
19966;DHT22;10144;50.874;4.762;2022-12-19T16:19:58;11.30;99.90
19966;DHT22;10144;50.874;4.762;2022-12-19T16:22:26;11.40;99.90
19966;DHT22;10144;50.874;4.762;2022-12-19T16:24:52;11.50;99.90
19966;DHT22;10144;50.874;4.762;2022-12-19T16:27:24;11.50;99.90
19966;DHT22;10144;50.874;4.762;2022-12-19T16:29:52;11.40;99.90
19966;DHT22;10144;50.874;4.762;2022-12-19T16:32:18;11.40;99.90
19966;DHT22;10144;50.874;4.762;2022-12-19T16:34:44;11.40;99.90
19966;DHT22;10144;50.874;4.762;2022-12-19T16:37:10;11.30;99.90
19966;DHT22;10144;50.874;4.762;2022-12-19T16:39:36;11.30;99.90
19966;DHT22;10144;50.874;4.762;2022-12-19T16:42:13;11.30;99.90
19966;DHT22;10144;50.874;4.762;2022-12-19T16:44:43;11.30;99.90
19966;DHT22;10144;50.874;4.762;2022-12-19T16:47:11;11.10;99.90
19966;DHT22;10144;50.874;4.762;2022-12-19T16:49:37;11.00;99.90
19966;DHT22;10144;50.874;4.762;2022-12-19T16:52:14;10.90;99.90
19966;DHT22;10144;50.874;4.762;2022-12-19T16:54:41;10.70;99.90
19966;DHT22;10144;50.874;4.762;2022-12-19T16:57:18;10.60;99.90
19966;DHT22;10144;50.874;4.762;2022-12-19T16:59:44;10.60;99.90
19966;DHT22;10144;50.874;4.762;2022-12-19T17:05:01;10.60;99.90
19966;DHT22;10144;50.874;4.762;2022-12-19T17:07:30;10.60;99.90
19966;DHT22;10144;50.874;4.762;2022-12-19T17:09:56;10.70;99.90
19966;DHT22;10144;50.874;4.762;2022-12-19T17:12:23;10.70;99.90
19966;DHT22;10144;50.874;4.762;2022-12-19T17:14:50;10.70;99.90
19966;DHT22;10144;50.874;4.762;2022-12-19T17:17:15;10.80;99.90
19966;DHT22;10144;50.874;4.762;2022-12-19T17:19:42;10.90;99.90
19966;DHT22;10144;50.874;4.762;2022-12-19T17:22:14;10.90;99.90
19966;DHT22;10144;50.874;4.762;2022-12-19T17:24:41;10.90;99.90
19966;DHT22;10144;50.874;4.762;2022-12-19T17:27:07;11.00;99.90
19966;DHT22;10144;50.874;4.762;2022-12-19T17:29:33;11.10;99.90
19966;DHT22;10144;50.874;4.762;2022-12-19T17:31:58;11.10;99.90
19966;DHT22;10144;50.874;4.762;2022-12-19T17:34:28;11.00;99.90
19966;DHT22;10144;50.874;4.762;2022-12-19T17:36:59;11.00;99.90
19966;DHT22;10144;50.874;4.762;2022-12-19T17:39:29;11.00;99.90
19966;DHT22;10144;50.874;4.762;2022-12-19T17:41:58;11.00;99.90
19966;DHT22;10144;50.874;4.762;2022-12-19T17:44:24;11.00;99.90
19966;DHT22;10144;50.874;4.762;2022-12-19T17:46:49;11.00;99.90
19966;DHT22;10144;50.874;4.762;2022-12-19T17:49:20;11.00;99.90
19966;DHT22;10144;50.874;4.762;2022-12-19T17:51:49;11.00;99.90
19966;DHT22;10144;50.874;4.762;2022-12-19T17:54:17;11.10;99.90
19966;DHT22;10144;50.874;4.762;2022-12-19T17:56:43;11.10;99.90
19966;DHT22;10144;50.874;4.762;2022-12-19T17:59:09;11.10;99.90
19966;DHT22;10144;50.874;4.762;2022-12-19T18:01:36;11.10;99.90
19966;DHT22;10144;50.874;4.762;2022-12-19T18:04:02;11.10;99.90
19966;DHT22;10144;50.874;4.762;2022-12-19T18:06:27;11.10;99.90
19966;DHT22;10144;50.874;4.762;2022-12-19T18:08:54;11.10;99.90
19966;DHT22;10144;50.874;4.762;2022-12-19T18:11:24;11.10;99.90
19966;DHT22;10144;50.874;4.762;2022-12-19T18:13:51;11.20;99.90
19966;DHT22;10144;50.874;4.762;2022-12-19T18:16:19;11.20;99.90
19966;DHT22;10144;50.874;4.762;2022-12-19T18:18:46;11.20;99.90
19966;DHT22;10144;50.874;4.762;2022-12-19T18:21:20;11.20;99.90
19966;DHT22;10144;50.874;4.762;2022-12-19T18:23:49;11.10;99.90
19966;DHT22;10144;50.874;4.762;2022-12-19T18:26:15;11.10;99.90
19966;DHT22;10144;50.874;4.762;2022-12-19T18:28:41;11.00;99.90
19966;DHT22;10144;50.874;4.762;2022-12-19T18:31:18;11.00;99.90
19966;DHT22;10144;50.874;4.762;2022-12-19T18:33:47;11.00;99.90
19966;DHT22;10144;50.874;4.762;2022-12-19T18:36:25;11.10;99.90
19966;DHT22;10144;50.874;4.762;2022-12-19T18:38:52;11.20;99.90
19966;DHT22;10144;50.874;4.762;2022-12-19T18:41:23;11.20;99.90
19966;DHT22;10144;50.874;4.762;2022-12-19T18:43:49;11.10;99.90
19966;DHT22;10144;50.874;4.762;2022-12-19T18:46:23;11.10;99.90
19966;DHT22;10144;50.874;4.762;2022-12-19T18:48:54;11.10;99.90
19966;DHT22;10144;50.874;4.762;2022-12-19T18:51:20;11.20;99.90
19966;DHT22;10144;50.874;4.762;2022-12-19T18:57:09;11.10;99.90
19966;DHT22;10144;50.874;4.762;2022-12-19T19:02:59;11.20;99.90
19966;DHT22;10144;50.874;4.762;2022-12-19T19:08:48;11.20;99.90
19966;DHT22;10144;50.874;4.762;2022-12-19T19:14:38;11.20;99.90
19966;DHT22;10144;50.874;4.762;2022-12-19T19:20:30;11.30;99.90
19966;DHT22;10144;50.874;4.762;2022-12-19T20:20:46;11.30;99.90
19966;DHT22;10144;50.874;4.762;2022-12-19T21:13:28;11.90;99.90
